sensor_id;sensor_type;location;lat;lon;timestamp;P1;durP1;ratioP1;P2;durP2;ratioP2
30133;SDS011;16946;49.984;10.672;2023-02-01T00:00:30;3.63;;;3.33;;
30133;SDS011;16946;49.984;10.672;2023-02-01T00:01:06;4.30;;;3.90;;
30133;SDS011;16946;49.984;10.672;2023-02-01T00:01:37;4.13;;;3.70;;
30133;SDS011;16946;49.984;10.672;2023-02-01T00:02:08;4.57;;;3.60;;
30133;SDS011;16946;49.984;10.672;2023-02-01T00:02:39;5.10;;;3.97;;
30133;SDS011;16946;49.984;10.672;2023-02-01T00:03:10;3.85;;;3.45;;
30133;SDS011;16946;49.984;10.672;2023-02-01T00:03:42;4.10;;;3.70;;
30133;SDS011;16946;49.984;10.672;2023-02-01T00:04:13;3.20;;;2.90;;
30133;SDS011;16946;49.984;10.672;2023-02-01T00:04:46;3.90;;;3.30;;
30133;SDS011;16946;49.984;10.672;2023-02-01T00:05:17;3.73;;;3.27;;
30133;SDS011;16946;49.984;10.672;2023-02-01T00:05:57;3.77;;;3.47;;
30133;SDS011;16946;49.984;10.672;2023-02-01T00:06:28;4.38;;;3.45;;
30133;SDS011;16946;49.984;10.672;2023-02-01T00:07:00;4.85;;;4.13;;
30133;SDS011;16946;49.984;10.672;2023-02-01T00:07:31;4.35;;;3.55;;
30133;SDS011;16946;49.984;10.672;2023-02-01T00:08:02;3.65;;;3.35;;
30133;SDS011;16946;49.984;10.672;2023-02-01T00:08:34;4.20;;;3.70;;
30133;SDS011;16946;49.984;10.672;2023-02-01T00:09:09;3.92;;;3.58;;
30133;SDS011;16946;49.984;10.672;2023-02-01T00:09:40;4.30;;;3.60;;
30133;SDS011;16946;49.984;10.672;2023-02-01T00:10:10;4.40;;;4.00;;
30133;SDS011;16946;49.984;10.672;2023-02-01T00:10:41;5.27;;;3.50;;
30133;SDS011;16946;49.984;10.672;2023-02-01T00:11:11;4.33;;;3.90;;
30133;SDS011;16946;49.984;10.672;2023-02-01T00:11:42;4.07;;;3.67;;
30133;SDS011;16946;49.984;10.672;2023-02-01T00:12:13;4.27;;;3.57;;
30133;SDS011;16946;49.984;10.672;2023-02-01T00:12:44;4.13;;;3.70;;
30133;SDS011;16946;49.984;10.672;2023-02-01T00:13:14;4.60;;;3.78;;
30133;SDS011;16946;49.984;10.672;2023-02-01T00:13:45;4.63;;;3.70;;
30133;SDS011;16946;49.984;10.672;2023-02-01T00:14:15;3.80;;;3.47;;
30133;SDS011;16946;49.984;10.672;2023-02-01T00:14:47;4.70;;;3.90;;
30133;SDS011;16946;49.984;10.672;2023-02-01T00:15:18;4.20;;;3.78;;
30133;SDS011;16946;49.984;10.672;2023-02-01T00:15:49;5.72;;;3.80;;
30133;SDS011;16946;49.984;10.672;2023-02-01T00:16:24;3.40;;;3.10;;
30133;SDS011;16946;49.984;10.672;2023-02-01T00:16:56;4.03;;;3.53;;
30133;SDS011;16946;49.984;10.672;2023-02-01T00:17:26;4.10;;;3.73;;
30133;SDS011;16946;49.984;10.672;2023-02-01T00:17:57;4.17;;;3.60;;
30133;SDS011;16946;49.984;10.672;2023-02-01T00:18:27;4.37;;;3.93;;
30133;SDS011;16946;49.984;10.672;2023-02-01T00:19:33;6.22;;;3.60;;
30133;SDS011;16946;49.984;10.672;2023-02-01T00:20:04;5.50;;;3.63;;
30133;SDS011;16946;49.984;10.672;2023-02-01T00:20:35;5.05;;;3.65;;
30133;SDS011;16946;49.984;10.672;2023-02-01T00:21:06;4.13;;;3.47;;
30133;SDS011;16946;49.984;10.672;2023-02-01T00:21:36;4.37;;;3.50;;
30133;SDS011;16946;49.984;10.672;2023-02-01T00:22:07;4.00;;;3.60;;
30133;SDS011;16946;49.984;10.672;2023-02-01T00:22:37;4.90;;;4.17;;
30133;SDS011;16946;49.984;10.672;2023-02-01T00:23:08;4.60;;;3.53;;
30133;SDS011;16946;49.984;10.672;2023-02-01T00:23:39;3.95;;;3.60;;
30133;SDS011;16946;49.984;10.672;2023-02-01T00:24:10;3.63;;;3.30;;
30133;SDS011;16946;49.984;10.672;2023-02-01T00:24:41;3.97;;;3.47;;
30133;SDS011;16946;49.984;10.672;2023-02-01T00:25:11;4.13;;;3.50;;
30133;SDS011;16946;49.984;10.672;2023-02-01T00:25:42;4.90;;;3.17;;
30133;SDS011;16946;49.984;10.672;2023-02-01T00:26:14;4.40;;;3.80;;
30133;SDS011;16946;49.984;10.672;2023-02-01T00:26:46;5.00;;;3.83;;
30133;SDS011;16946;49.984;10.672;2023-02-01T00:27:17;3.83;;;3.47;;
30133;SDS011;16946;49.984;10.672;2023-02-01T00:27:50;5.15;;;3.67;;
30133;SDS011;16946;49.984;10.672;2023-02-01T00:28:20;4.87;;;3.60;;
30133;SDS011;16946;49.984;10.672;2023-02-01T00:28:51;5.40;;;4.17;;
30133;SDS011;16946;49.984;10.672;2023-02-01T00:29:21;5.40;;;3.70;;
30133;SDS011;16946;49.984;10.672;2023-02-01T00:29:54;4.73;;;3.30;;
30133;SDS011;16946;49.984;10.672;2023-02-01T00:30:25;4.57;;;3.95;;
30133;SDS011;16946;49.984;10.672;2023-02-01T00:30:56;4.00;;;3.70;;
30133;SDS011;16946;49.984;10.672;2023-02-01T00:31:27;4.00;;;3.70;;
30133;SDS011;16946;49.984;10.672;2023-02-01T00:31:58;6.65;;;4.20;;
30133;SDS011;16946;49.984;10.672;2023-02-01T00:32:29;5.93;;;3.90;;
30133;SDS011;16946;49.984;10.672;2023-02-01T00:33:01;4.43;;;3.92;;
30133;SDS011;16946;49.984;10.672;2023-02-01T00:33:32;5.30;;;3.73;;
30133;SDS011;16946;49.984;10.672;2023-02-01T00:34:03;4.23;;;3.67;;
30133;SDS011;16946;49.984;10.672;2023-02-01T00:34:33;4.73;;;3.97;;
30133;SDS011;16946;49.984;10.672;2023-02-01T00:35:04;5.10;;;4.10;;
30133;SDS011;16946;49.984;10.672;2023-02-01T00:35:35;4.47;;;4.07;;
30133;SDS011;16946;49.984;10.672;2023-02-01T00:36:07;4.20;;;3.80;;
30133;SDS011;16946;49.984;10.672;2023-02-01T00:36:38;4.70;;;4.05;;
30133;SDS011;16946;49.984;10.672;2023-02-01T00:37:09;4.40;;;4.00;;
30133;SDS011;16946;49.984;10.672;2023-02-01T00:37:39;5.27;;;4.13;;
30133;SDS011;16946;49.984;10.672;2023-02-01T00:38:10;5.40;;;4.20;;
30133;SDS011;16946;49.984;10.672;2023-02-01T00:38:40;4.67;;;4.27;;
30133;SDS011;16946;49.984;10.672;2023-02-01T00:39:11;3.93;;;3.60;;
30133;SDS011;16946;49.984;10.672;2023-02-01T00:39:42;5.70;;;4.27;;
30133;SDS011;16946;49.984;10.672;2023-02-01T00:40:12;4.67;;;4.27;;
30133;SDS011;16946;49.984;10.672;2023-02-01T00:40:43;4.63;;;4.10;;
30133;SDS011;16946;49.984;10.672;2023-02-01T00:41:15;5.60;;;4.30;;
30133;SDS011;16946;49.984;10.672;2023-02-01T00:41:47;6.15;;;4.20;;
30133;SDS011;16946;49.984;10.672;2023-02-01T00:42:18;5.43;;;4.17;;
30133;SDS011;16946;49.984;10.672;2023-02-01T00:42:48;4.90;;;4.30;;
30133;SDS011;16946;49.984;10.672;2023-02-01T00:43:19;4.60;;;4.10;;
30133;SDS011;16946;49.984;10.672;2023-02-01T00:43:50;6.27;;;4.30;;
30133;SDS011;16946;49.984;10.672;2023-02-01T00:44:21;4.72;;;4.22;;
30133;SDS011;16946;49.984;10.672;2023-02-01T00:44:51;4.50;;;4.10;;
30133;SDS011;16946;49.984;10.672;2023-02-01T00:45:22;5.13;;;3.97;;
30133;SDS011;16946;49.984;10.672;2023-02-01T00:45:52;3.73;;;3.43;;
30133;SDS011;16946;49.984;10.672;2023-02-01T00:46:23;3.70;;;3.33;;
30133;SDS011;16946;49.984;10.672;2023-02-01T00:46:54;4.75;;;3.63;;
30133;SDS011;16946;49.984;10.672;2023-02-01T00:47:24;4.50;;;3.60;;
30133;SDS011;16946;49.984;10.672;2023-02-01T00:47:55;4.53;;;3.90;;
30133;SDS011;16946;49.984;10.672;2023-02-01T00:48:25;4.67;;;3.90;;
30133;SDS011;16946;49.984;10.672;2023-02-01T00:48:56;4.90;;;4.13;;
30133;SDS011;16946;49.984;10.672;2023-02-01T00:49:27;6.00;;;3.70;;
30133;SDS011;16946;49.984;10.672;2023-02-01T00:49:58;5.28;;;4.40;;
30133;SDS011;16946;49.984;10.672;2023-02-01T00:50:29;7.27;;;4.77;;
30133;SDS011;16946;49.984;10.672;2023-02-01T00:51:00;4.57;;;4.10;;
30133;SDS011;16946;49.984;10.672;2023-02-01T00:51:32;6.10;;;4.22;;
30133;SDS011;16946;49.984;10.672;2023-02-01T00:52:02;5.53;;;4.63;;
30133;SDS011;16946;49.984;10.672;2023-02-01T00:52:33;5.20;;;4.70;;
30133;SDS011;16946;49.984;10.672;2023-02-01T00:53:04;4.70;;;4.13;;
30133;SDS011;16946;49.984;10.672;2023-02-01T00:53:34;4.90;;;4.37;;
30133;SDS011;16946;49.984;10.672;2023-02-01T00:54:05;4.00;;;3.70;;
30133;SDS011;16946;49.984;10.672;2023-02-01T00:54:35;5.30;;;4.70;;
30133;SDS011;16946;49.984;10.672;2023-02-01T00:55:07;5.10;;;4.45;;
30133;SDS011;16946;49.984;10.672;2023-02-01T00:55:38;5.23;;;4.73;;
30133;SDS011;16946;49.984;10.672;2023-02-01T00:56:08;4.63;;;4.23;;
30133;SDS011;16946;49.984;10.672;2023-02-01T00:56:39;6.95;;;4.45;;
30133;SDS011;16946;49.984;10.672;2023-02-01T00:57:10;6.97;;;4.60;;
30133;SDS011;16946;49.984;10.672;2023-02-01T00:57:40;5.33;;;4.73;;
30133;SDS011;16946;49.984;10.672;2023-02-01T00:58:11;5.50;;;4.70;;
30133;SDS011;16946;49.984;10.672;2023-02-01T00:58:41;5.40;;;4.67;;
30133;SDS011;16946;49.984;10.672;2023-02-01T00:59:12;7.13;;;4.97;;
30133;SDS011;16946;49.984;10.672;2023-02-01T00:59:43;7.40;;;5.10;;
30133;SDS011;16946;49.984;10.672;2023-02-01T01:00:14;5.30;;;4.70;;
30133;SDS011;16946;49.984;10.672;2023-02-01T01:00:45;5.43;;;4.72;;
30133;SDS011;16946;49.984;10.672;2023-02-01T01:01:18;5.97;;;4.95;;
30133;SDS011;16946;49.984;10.672;2023-02-01T01:01:50;4.60;;;4.20;;
30133;SDS011;16946;49.984;10.672;2023-02-01T01:02:20;6.43;;;4.60;;
30133;SDS011;16946;49.984;10.672;2023-02-01T01:02:51;4.60;;;4.20;;
30133;SDS011;16946;49.984;10.672;2023-02-01T01:03:21;5.00;;;4.50;;
30133;SDS011;16946;49.984;10.672;2023-02-01T01:03:55;5.20;;;4.70;;
30133;SDS011;16946;49.984;10.672;2023-02-01T01:04:27;5.55;;;4.78;;
30133;SDS011;16946;49.984;10.672;2023-02-01T01:04:57;5.07;;;4.57;;
30133;SDS011;16946;49.984;10.672;2023-02-01T01:05:28;6.27;;;5.00;;
30133;SDS011;16946;49.984;10.672;2023-02-01T01:05:59;4.30;;;3.90;;
30133;SDS011;16946;49.984;10.672;2023-02-01T01:06:31;5.05;;;4.47;;
30133;SDS011;16946;49.984;10.672;2023-02-01T01:07:03;4.60;;;4.20;;
30133;SDS011;16946;49.984;10.672;2023-02-01T01:07:33;5.87;;;5.00;;
30133;SDS011;16946;49.984;10.672;2023-02-01T01:08:04;5.00;;;4.60;;
30133;SDS011;16946;49.984;10.672;2023-02-01T01:08:35;4.80;;;4.40;;
30133;SDS011;16946;49.984;10.672;2023-02-01T01:09:07;5.28;;;4.22;;
30133;SDS011;16946;49.984;10.672;2023-02-01T01:09:37;4.57;;;4.10;;
30133;SDS011;16946;49.984;10.672;2023-02-01T01:10:08;4.50;;;4.10;;
30133;SDS011;16946;49.984;10.672;2023-02-01T01:10:39;5.22;;;4.70;;
30133;SDS011;16946;49.984;10.672;2023-02-01T01:11:17;5.13;;;4.63;;
30133;SDS011;16946;49.984;10.672;2023-02-01T01:11:49;5.45;;;4.55;;
30133;SDS011;16946;49.984;10.672;2023-02-01T01:12:21;5.05;;;4.55;;
30133;SDS011;16946;49.984;10.672;2023-02-01T01:12:51;5.57;;;4.27;;
30133;SDS011;16946;49.984;10.672;2023-02-01T01:13:22;5.13;;;4.20;;
30133;SDS011;16946;49.984;10.672;2023-02-01T01:13:53;5.07;;;4.53;;
30133;SDS011;16946;49.984;10.672;2023-02-01T01:14:24;5.88;;;5.28;;
30133;SDS011;16946;49.984;10.672;2023-02-01T01:14:55;6.63;;;5.50;;
30133;SDS011;16946;49.984;10.672;2023-02-01T01:15:25;8.27;;;6.30;;
30133;SDS011;16946;49.984;10.672;2023-02-01T01:15:56;8.77;;;7.13;;
30133;SDS011;16946;49.984;10.672;2023-02-01T01:16:31;8.23;;;7.50;;
30133;SDS011;16946;49.984;10.672;2023-02-01T01:17:02;8.43;;;7.63;;
30133;SDS011;16946;49.984;10.672;2023-02-01T01:17:33;9.37;;;8.30;;
30133;SDS011;16946;49.984;10.672;2023-02-01T01:18:03;9.03;;;8.13;;
30133;SDS011;16946;49.984;10.672;2023-02-01T01:18:34;8.40;;;7.23;;
30133;SDS011;16946;49.984;10.672;2023-02-01T01:19:05;8.07;;;7.27;;
30133;SDS011;16946;49.984;10.672;2023-02-01T01:19:36;8.18;;;7.38;;
30133;SDS011;16946;49.984;10.672;2023-02-01T01:20:07;8.10;;;7.30;;
30133;SDS011;16946;49.984;10.672;2023-02-01T01:20:39;7.53;;;6.68;;
30133;SDS011;16946;49.984;10.672;2023-02-01T01:21:11;7.53;;;6.82;;
30133;SDS011;16946;49.984;10.672;2023-02-01T01:21:43;8.35;;;6.75;;
30133;SDS011;16946;49.984;10.672;2023-02-01T01:22:14;8.17;;;7.40;;
30133;SDS011;16946;49.984;10.672;2023-02-01T01:22:44;8.03;;;7.23;;
30133;SDS011;16946;49.984;10.672;2023-02-01T01:23:15;8.70;;;7.90;;
30133;SDS011;16946;49.984;10.672;2023-02-01T01:23:46;8.50;;;7.70;;
30133;SDS011;16946;49.984;10.672;2023-02-01T01:24:16;7.93;;;7.13;;
30133;SDS011;16946;49.984;10.672;2023-02-01T01:24:47;10.90;;;8.00;;
30133;SDS011;16946;49.984;10.672;2023-02-01T01:25:17;8.73;;;7.83;;
30133;SDS011;16946;49.984;10.672;2023-02-01T01:25:48;7.70;;;6.90;;
30133;SDS011;16946;49.984;10.672;2023-02-01T01:26:20;8.20;;;7.10;;
30133;SDS011;16946;49.984;10.672;2023-02-01T01:26:52;7.63;;;6.93;;
30133;SDS011;16946;49.984;10.672;2023-02-01T01:27:23;8.80;;;7.87;;
30133;SDS011;16946;49.984;10.672;2023-02-01T01:27:55;8.55;;;7.65;;
30133;SDS011;16946;49.984;10.672;2023-02-01T01:28:25;8.97;;;7.97;;
30133;SDS011;16946;49.984;10.672;2023-02-01T01:28:56;7.77;;;6.97;;
30133;SDS011;16946;49.984;10.672;2023-02-01T01:29:28;7.60;;;6.90;;
30133;SDS011;16946;49.984;10.672;2023-02-01T01:29:58;7.80;;;7.10;;
30133;SDS011;16946;49.984;10.672;2023-02-01T01:30:29;7.20;;;6.50;;
30133;SDS011;16946;49.984;10.672;2023-02-01T01:30:59;6.90;;;6.30;;
30133;SDS011;16946;49.984;10.672;2023-02-01T01:31:30;6.83;;;6.23;;
30133;SDS011;16946;49.984;10.672;2023-02-01T01:32:01;8.95;;;7.18;;
30133;SDS011;16946;49.984;10.672;2023-02-01T01:32:32;6.97;;;6.27;;
30133;SDS011;16946;49.984;10.672;2023-02-01T01:33:02;7.47;;;6.70;;
30133;SDS011;16946;49.984;10.672;2023-02-01T01:33:33;8.27;;;7.47;;
30133;SDS011;16946;49.984;10.672;2023-02-01T01:34:04;8.33;;;7.53;;
30133;SDS011;16946;49.984;10.672;2023-02-01T01:34:34;8.33;;;7.53;;
30133;SDS011;16946;49.984;10.672;2023-02-01T01:35:05;8.27;;;6.63;;
30133;SDS011;16946;49.984;10.672;2023-02-01T01:35:36;5.78;;;5.22;;
30133;SDS011;16946;49.984;10.672;2023-02-01T01:36:07;6.37;;;5.43;;
30133;SDS011;16946;49.984;10.672;2023-02-01T01:36:41;6.18;;;5.15;;
30133;SDS011;16946;49.984;10.672;2023-02-01T01:37:11;5.70;;;4.63;;
30133;SDS011;16946;49.984;10.672;2023-02-01T01:37:42;5.13;;;4.50;;
30133;SDS011;16946;49.984;10.672;2023-02-01T01:38:12;5.23;;;4.37;;
30133;SDS011;16946;49.984;10.672;2023-02-01T01:38:43;4.73;;;4.20;;
30133;SDS011;16946;49.984;10.672;2023-02-01T01:39:13;6.40;;;4.03;;
30133;SDS011;16946;49.984;10.672;2023-02-01T01:39:44;5.83;;;3.70;;
30133;SDS011;16946;49.984;10.672;2023-02-01T01:40:14;4.83;;;3.97;;
30133;SDS011;16946;49.984;10.672;2023-02-01T01:40:45;4.33;;;3.60;;
30133;SDS011;16946;49.984;10.672;2023-02-01T01:41:21;3.70;;;3.08;;
30133;SDS011;16946;49.984;10.672;2023-02-01T01:41:53;5.85;;;3.15;;
30133;SDS011;16946;49.984;10.672;2023-02-01T01:42:24;6.33;;;2.90;;
30133;SDS011;16946;49.984;10.672;2023-02-01T01:42:54;6.70;;;2.70;;
30133;SDS011;16946;49.984;10.672;2023-02-01T01:43:44;4.88;;;2.90;;
30133;SDS011;16946;49.984;10.672;2023-02-01T01:45:32;5.47;;;2.33;;
30133;SDS011;16946;49.984;10.672;2023-02-01T01:46:04;8.43;;;2.88;;
30133;SDS011;16946;49.984;10.672;2023-02-01T01:46:35;8.20;;;2.70;;
30133;SDS011;16946;49.984;10.672;2023-02-01T01:47:07;9.23;;;2.60;;
30133;SDS011;16946;49.984;10.672;2023-02-01T01:47:41;6.10;;;2.50;;
30133;SDS011;16946;49.984;10.672;2023-02-01T01:48:16;8.90;;;2.97;;
30133;SDS011;16946;49.984;10.672;2023-02-01T01:49:29;4.78;;;2.33;;
30133;SDS011;16946;49.984;10.672;2023-02-01T01:50:00;5.83;;;2.60;;
30133;SDS011;16946;49.984;10.672;2023-02-01T01:50:40;5.93;;;2.38;;
30133;SDS011;16946;49.984;10.672;2023-02-01T01:51:19;6.20;;;2.63;;
30133;SDS011;16946;49.984;10.672;2023-02-01T01:51:52;4.05;;;2.42;;
30133;SDS011;16946;49.984;10.672;2023-02-01T01:52:30;7.47;;;2.58;;
30133;SDS011;16946;49.984;10.672;2023-02-01T01:53:03;5.68;;;2.88;;
30133;SDS011;16946;49.984;10.672;2023-02-01T01:53:38;4.70;;;2.63;;
30133;SDS011;16946;49.984;10.672;2023-02-01T01:54:17;6.78;;;2.25;;
30133;SDS011;16946;49.984;10.672;2023-02-01T01:54:51;5.68;;;2.58;;
30133;SDS011;16946;49.984;10.672;2023-02-01T01:55:24;5.30;;;2.38;;
30133;SDS011;16946;49.984;10.672;2023-02-01T01:55:57;7.05;;;2.70;;
30133;SDS011;16946;49.984;10.672;2023-02-01T01:56:28;6.13;;;2.53;;
30133;SDS011;16946;49.984;10.672;2023-02-01T01:57:10;5.78;;;3.00;;
30133;SDS011;16946;49.984;10.672;2023-02-01T01:57:46;8.00;;;2.88;;
30133;SDS011;16946;49.984;10.672;2023-02-01T01:58:22;7.68;;;2.60;;
30133;SDS011;16946;49.984;10.672;2023-02-01T01:58:56;7.43;;;3.03;;
30133;SDS011;16946;49.984;10.672;2023-02-01T01:59:26;5.37;;;2.50;;
30133;SDS011;16946;49.984;10.672;2023-02-01T02:00:08;4.85;;;2.50;;
30133;SDS011;16946;49.984;10.672;2023-02-01T02:00:40;5.40;;;2.70;;
30133;SDS011;16946;49.984;10.672;2023-02-01T02:01:11;9.15;;;3.08;;
30133;SDS011;16946;49.984;10.672;2023-02-01T02:01:42;5.77;;;3.10;;
30133;SDS011;16946;49.984;10.672;2023-02-01T02:02:13;8.82;;;3.45;;
30133;SDS011;16946;49.984;10.672;2023-02-01T02:02:44;5.03;;;3.17;;
30133;SDS011;16946;49.984;10.672;2023-02-01T02:03:18;6.65;;;3.40;;
30133;SDS011;16946;49.984;10.672;2023-02-01T02:03:51;7.40;;;3.70;;
30133;SDS011;16946;49.984;10.672;2023-02-01T02:04:23;7.68;;;3.60;;
30133;SDS011;16946;49.984;10.672;2023-02-01T02:04:54;4.93;;;3.40;;
30133;SDS011;16946;49.984;10.672;2023-02-01T02:05:25;5.27;;;3.30;;
30133;SDS011;16946;49.984;10.672;2023-02-01T02:05:57;5.88;;;3.53;;
30133;SDS011;16946;49.984;10.672;2023-02-01T02:06:48;8.18;;;4.00;;
30133;SDS011;16946;49.984;10.672;2023-02-01T02:07:26;5.80;;;3.13;;
30133;SDS011;16946;49.984;10.672;2023-02-01T02:08:00;6.10;;;3.30;;
30133;SDS011;16946;49.984;10.672;2023-02-01T02:08:31;5.97;;;3.57;;
30133;SDS011;16946;49.984;10.672;2023-02-01T02:09:02;6.03;;;4.13;;
30133;SDS011;16946;49.984;10.672;2023-02-01T02:09:33;6.93;;;3.10;;
30133;SDS011;16946;49.984;10.672;2023-02-01T02:10:05;5.10;;;3.50;;
30133;SDS011;16946;49.984;10.672;2023-02-01T02:10:40;6.68;;;3.55;;
30133;SDS011;16946;49.984;10.672;2023-02-01T02:11:29;4.85;;;3.88;;
30133;SDS011;16946;49.984;10.672;2023-02-01T02:12:00;5.97;;;3.60;;
30133;SDS011;16946;49.984;10.672;2023-02-01T02:12:30;4.53;;;3.70;;
30133;SDS011;16946;49.984;10.672;2023-02-01T02:13:01;5.50;;;4.50;;
30133;SDS011;16946;49.984;10.672;2023-02-01T02:13:34;6.10;;;4.70;;
30133;SDS011;16946;49.984;10.672;2023-02-01T02:14:09;7.43;;;4.50;;
30133;SDS011;16946;49.984;10.672;2023-02-01T02:14:42;6.88;;;4.65;;
30133;SDS011;16946;49.984;10.672;2023-02-01T02:15:14;5.72;;;4.45;;
30133;SDS011;16946;49.984;10.672;2023-02-01T02:15:50;6.78;;;5.13;;
30133;SDS011;16946;49.984;10.672;2023-02-01T02:20:32;7.38;;;6.22;;
30133;SDS011;16946;49.984;10.672;2023-02-01T02:22:35;8.32;;;6.55;;
30133;SDS011;16946;49.984;10.672;2023-02-01T02:23:36;9.20;;;6.72;;
30133;SDS011;16946;49.984;10.672;2023-02-01T02:26:23;11.38;;;7.90;;
30133;SDS011;16946;49.984;10.672;2023-02-01T02:28:09;6.80;;;6.20;;
30133;SDS011;16946;49.984;10.672;2023-02-01T02:29:04;7.53;;;6.45;;
30133;SDS011;16946;49.984;10.672;2023-02-01T02:33:02;7.50;;;6.80;;
30133;SDS011;16946;49.984;10.672;2023-02-01T02:34:57;8.45;;;6.78;;
30133;SDS011;16946;49.984;10.672;2023-02-01T02:35:40;9.55;;;7.10;;
30133;SDS011;16946;49.984;10.672;2023-02-01T02:38:18;6.85;;;5.80;;
30133;SDS011;16946;49.984;10.672;2023-02-01T02:40:45;7.25;;;5.68;;
30133;SDS011;16946;49.984;10.672;2023-02-01T02:42:47;7.05;;;4.93;;
30133;SDS011;16946;49.984;10.672;2023-02-01T02:43:47;8.23;;;5.25;;
30133;SDS011;16946;49.984;10.672;2023-02-01T02:46:14;6.22;;;5.00;;
30133;SDS011;16946;49.984;10.672;2023-02-01T02:47:15;7.15;;;5.18;;
30133;SDS011;16946;49.984;10.672;2023-02-01T02:48:40;5.93;;;4.97;;
30133;SDS011;16946;49.984;10.672;2023-02-01T02:49:19;7.15;;;5.78;;
30133;SDS011;16946;49.984;10.672;2023-02-01T02:52:08;5.95;;;5.35;;
30133;SDS011;16946;49.984;10.672;2023-02-01T02:54:58;5.68;;;5.07;;
30133;SDS011;16946;49.984;10.672;2023-02-01T02:55:33;8.02;;;6.30;;
30133;SDS011;16946;49.984;10.672;2023-02-01T02:56:07;7.78;;;5.85;;
30133;SDS011;16946;49.984;10.672;2023-02-01T02:56:58;5.50;;;5.00;;
30133;SDS011;16946;49.984;10.672;2023-02-01T02:57:50;9.27;;;6.10;;
30133;SDS011;16946;49.984;10.672;2023-02-01T02:58:40;9.13;;;6.32;;
30133;SDS011;16946;49.984;10.672;2023-02-01T02:59:31;8.07;;;6.80;;
30133;SDS011;16946;49.984;10.672;2023-02-01T03:00:24;7.13;;;5.93;;
30133;SDS011;16946;49.984;10.672;2023-02-01T03:01:18;7.95;;;5.97;;
30133;SDS011;16946;49.984;10.672;2023-02-01T03:02:07;6.78;;;5.43;;
30133;SDS011;16946;49.984;10.672;2023-02-01T03:02:57;7.32;;;5.40;;
30133;SDS011;16946;49.984;10.672;2023-02-01T03:03:46;6.78;;;5.93;;
30133;SDS011;16946;49.984;10.672;2023-02-01T03:04:38;7.95;;;6.32;;
30133;SDS011;16946;49.984;10.672;2023-02-01T03:05:10;6.68;;;5.82;;
30133;SDS011;16946;49.984;10.672;2023-02-01T03:05:42;7.20;;;5.73;;
30133;SDS011;16946;49.984;10.672;2023-02-01T03:06:16;6.60;;;5.97;;
30133;SDS011;16946;49.984;10.672;2023-02-01T03:06:48;6.07;;;5.50;;
30133;SDS011;16946;49.984;10.672;2023-02-01T03:08:15;7.72;;;5.93;;
30133;SDS011;16946;49.984;10.672;2023-02-01T03:08:49;6.18;;;5.07;;
30133;SDS011;16946;49.984;10.672;2023-02-01T03:09:30;5.80;;;4.95;;
30133;SDS011;16946;49.984;10.672;2023-02-01T03:10:05;6.47;;;5.53;;
30133;SDS011;16946;49.984;10.672;2023-02-01T03:11:28;6.35;;;5.72;;
30133;SDS011;16946;49.984;10.672;2023-02-01T03:12:20;7.45;;;5.38;;
30133;SDS011;16946;49.984;10.672;2023-02-01T03:13:52;5.60;;;5.10;;
30133;SDS011;16946;49.984;10.672;2023-02-01T03:14:26;7.15;;;5.80;;
30133;SDS011;16946;49.984;10.672;2023-02-01T03:15:06;8.02;;;6.00;;
30133;SDS011;16946;49.984;10.672;2023-02-01T03:15:42;6.30;;;5.70;;
30133;SDS011;16946;49.984;10.672;2023-02-01T03:16:28;7.20;;;5.72;;
30133;SDS011;16946;49.984;10.672;2023-02-01T03:17:07;6.75;;;6.13;;
30133;SDS011;16946;49.984;10.672;2023-02-01T03:17:45;7.43;;;5.95;;
30133;SDS011;16946;49.984;10.672;2023-02-01T03:18:19;6.78;;;5.57;;
30133;SDS011;16946;49.984;10.672;2023-02-01T03:19:43;7.47;;;5.60;;
30133;SDS011;16946;49.984;10.672;2023-02-01T03:20:19;6.45;;;5.53;;
30133;SDS011;16946;49.984;10.672;2023-02-01T03:20:50;6.27;;;5.57;;
30133;SDS011;16946;49.984;10.672;2023-02-01T03:21:24;6.30;;;5.70;;
30133;SDS011;16946;49.984;10.672;2023-02-01T03:22:03;6.03;;;5.38;;
30133;SDS011;16946;49.984;10.672;2023-02-01T03:22:36;9.27;;;5.60;;
30133;SDS011;16946;49.984;10.672;2023-02-01T03:23:09;8.65;;;5.65;;
30133;SDS011;16946;49.984;10.672;2023-02-01T03:23:43;5.88;;;5.18;;
30133;SDS011;16946;49.984;10.672;2023-02-01T03:25:05;7.25;;;5.45;;
30133;SDS011;16946;49.984;10.672;2023-02-01T03:25:42;6.82;;;5.10;;
30133;SDS011;16946;49.984;10.672;2023-02-01T03:26:14;5.30;;;4.80;;
30133;SDS011;16946;49.984;10.672;2023-02-01T03:26:49;5.40;;;4.53;;
30133;SDS011;16946;49.984;10.672;2023-02-01T03:27:35;6.22;;;4.93;;
30133;SDS011;16946;49.984;10.672;2023-02-01T03:28:13;5.85;;;4.45;;
30133;SDS011;16946;49.984;10.672;2023-02-01T03:28:52;6.43;;;5.13;;
30133;SDS011;16946;49.984;10.672;2023-02-01T03:29:46;6.32;;;5.15;;
30133;SDS011;16946;49.984;10.672;2023-02-01T03:30:24;7.13;;;4.90;;
30133;SDS011;16946;49.984;10.672;2023-02-01T03:30:58;6.40;;;4.90;;
30133;SDS011;16946;49.984;10.672;2023-02-01T03:31:29;5.78;;;5.28;;
30133;SDS011;16946;49.984;10.672;2023-02-01T03:32:00;6.80;;;4.70;;
30133;SDS011;16946;49.984;10.672;2023-02-01T03:32:31;6.40;;;4.87;;
30133;SDS011;16946;49.984;10.672;2023-02-01T03:33:23;5.82;;;5.22;;
30133;SDS011;16946;49.984;10.672;2023-02-01T03:33:54;5.80;;;5.00;;
30133;SDS011;16946;49.984;10.672;2023-02-01T03:34:25;8.13;;;5.10;;
30133;SDS011;16946;49.984;10.672;2023-02-01T03:34:56;6.10;;;4.50;;
30133;SDS011;16946;49.984;10.672;2023-02-01T03:36:56;5.20;;;4.45;;
30133;SDS011;16946;49.984;10.672;2023-02-01T03:37:31;5.18;;;4.40;;
30133;SDS011;16946;49.984;10.672;2023-02-01T03:38:06;5.43;;;4.57;;
30133;SDS011;16946;49.984;10.672;2023-02-01T03:39:25;6.32;;;4.35;;
30133;SDS011;16946;49.984;10.672;2023-02-01T03:40:08;5.55;;;4.65;;
30133;SDS011;16946;49.984;10.672;2023-02-01T03:40:44;5.28;;;4.45;;
30133;SDS011;16946;49.984;10.672;2023-02-01T03:41:24;6.65;;;5.32;;
30133;SDS011;16946;49.984;10.672;2023-02-01T03:42:04;7.00;;;4.75;;
30133;SDS011;16946;49.984;10.672;2023-02-01T03:42:43;6.45;;;4.40;;
30133;SDS011;16946;49.984;10.672;2023-02-01T03:43:18;6.28;;;4.50;;
30133;SDS011;16946;49.984;10.672;2023-02-01T03:43:52;6.85;;;4.70;;
30133;SDS011;16946;49.984;10.672;2023-02-01T03:44:47;7.70;;;4.80;;
30133;SDS011;16946;49.984;10.672;2023-02-01T03:45:28;6.53;;;5.05;;
30133;SDS011;16946;49.984;10.672;2023-02-01T03:46:06;6.68;;;4.68;;
30133;SDS011;16946;49.984;10.672;2023-02-01T03:46:43;7.60;;;5.38;;
30133;SDS011;16946;49.984;10.672;2023-02-01T03:47:28;7.18;;;4.60;;
30133;SDS011;16946;49.984;10.672;2023-02-01T03:48:03;6.00;;;4.60;;
30133;SDS011;16946;49.984;10.672;2023-02-01T03:48:35;6.38;;;4.97;;
30133;SDS011;16946;49.984;10.672;2023-02-01T03:49:06;5.53;;;5.03;;
30133;SDS011;16946;49.984;10.672;2023-02-01T03:49:43;5.25;;;4.72;;
30133;SDS011;16946;49.984;10.672;2023-02-01T03:50:17;6.00;;;5.40;;
30133;SDS011;16946;49.984;10.672;2023-02-01T03:50:52;5.60;;;4.65;;
30133;SDS011;16946;49.984;10.672;2023-02-01T03:51:26;7.15;;;5.43;;
30133;SDS011;16946;49.984;10.672;2023-02-01T03:51:57;6.20;;;5.60;;
30133;SDS011;16946;49.984;10.672;2023-02-01T03:53:19;6.57;;;5.68;;
30133;SDS011;16946;49.984;10.672;2023-02-01T03:53:52;8.45;;;5.75;;
30133;SDS011;16946;49.984;10.672;2023-02-01T03:54:24;7.95;;;5.70;;
30133;SDS011;16946;49.984;10.672;2023-02-01T03:54:57;6.80;;;5.25;;
30133;SDS011;16946;49.984;10.672;2023-02-01T03:55:28;9.50;;;6.25;;
30133;SDS011;16946;49.984;10.672;2023-02-01T03:56:00;5.95;;;5.32;;
30133;SDS011;16946;49.984;10.672;2023-02-01T03:56:31;6.80;;;5.75;;